Drew, Mississippi
Current Conditions -  °F | °C
As of 7:55 PM on Monday 24 Nov 2014 (Local Time) from KRNV Reporting Station
Clear Clear  
Wind Chill: 46°   Ceiling: Unl
Heat Index: 48°   Visibility: 10mi
Dew Point: 39°   Wind: 5mph
Humidity: 71%   Direction: 240°WSW
Pressure: 30.04"   Gusts: NA
Location:  33.81°N, 90.53°W
Report Text: KRNV 250155Z AUTO 24004KT 10SM CLR 09/04 A3004 RMK AO2 T00870038
Loading
Personal Weather Stations






























Interactive Weather Map New forecast layout! Learn more

10-Day Weather Forecast

Advertisements
Track Severe Weather on mobile